Time;durP1;ratioP1;P1;durP2;ratioP2;P2;SDS_P1;SDS_P2;PMS_P1;PMS_P2;Temp;Humidity;BMP_temperature;BMP_pressure;BME280_temperature;BME280_humidity;BME280_pressure;Samples;Min_cycle;Max_cycle;Signal;HPM_P1;HPM_P2
2022/08/25 00:02:55;;;;;;;7.13;1.90;;;;;;;20.97;65.26;100235.22;10327303;28;20485;-73
2022/08/25 00:07:56;;;;;;;10.68;2.03;;;;;;;20.59;66.01;100172.88;10327344;28;20390;-71
2022/08/25 00:12:57;;;;;;;8.15;2.20;;;;;;;21.07;66.70;100250.00;10331681;28;20048;-69
2022/08/25 00:17:59;;;;;;;10.27;2.08;;;;;;;20.60;67.26;100174.50;10367000;28;20046;-71
2022/08/25 00:23:00;;;;;;;13.98;2.25;;;;;;;20.50;67.88;100162.41;10367558;28;20144;-72
2022/08/25 00:28:01;;;;;;;8.55;2.25;;;;;;;20.45;68.41;100145.31;10367355;28;20046;-69
2022/08/25 00:33:03;;;;;;;7.20;1.98;;;;;;;20.51;69.09;100163.25;10367102;28;20382;-72
2022/08/25 00:38:04;;;;;;;6.80;2.30;;;;;;;20.98;69.56;100227.94;10366441;28;20046;-70
2022/08/25 00:43:06;;;;;;;9.10;2.13;;;;;;;20.87;70.09;100216.09;10366437;28;20058;-70
2022/08/25 00:48:07;;;;;;;13.52;2.38;;;;;;;20.42;70.48;100146.59;10366762;28;20058;-72
2022/08/25 00:53:07;;;;;;;12.18;2.60;;;;;;;20.41;70.90;100150.34;10366316;28;20034;-70
2022/08/25 00:58:15;;;;;;;12.63;2.53;;;;;;;20.44;73.23;100167.94;10365389;28;20070;-70
2022/08/25 01:03:18;;;;;;;11.25;2.50;;;;;;;20.37;72.43;100170.78;10366401;28;20095;-72
2022/08/25 01:08:26;;;;;;;8.85;2.65;;;;;;;20.32;73.51;100167.97;10367105;28;20137;-70
2022/08/25 01:13:51;;;;;;;22.55;3.08;;;;;;;20.80;74.90;100236.22;10366933;28;20494;-69
2022/08/25 01:18:56;;;;;;;13.30;2.45;;;;;;;20.60;74.30;100225.78;10366731;28;20042;-70
2022/08/25 01:23:59;;;;;;;8.35;2.40;;;;;;;20.23;74.49;100169.38;10366059;28;20558;-72
2022/08/25 01:29:21;;;;;;;10.63;3.15;;;;;;;20.67;74.71;100238.13;10365110;28;20042;-71
2022/08/25 01:34:24;;;;;;;8.68;2.28;;;;;;;20.56;74.88;100238.94;10365481;28;20038;-70
2022/08/25 01:39:28;;;;;;;5.53;2.50;;;;;;;20.68;75.13;100257.81;10364892;28;20102;-70
2022/08/25 01:44:30;;;;;;;6.85;2.53;;;;;;;20.42;74.88;100216.75;10365740;28;20549;-73
2022/08/25 01:49:32;;;;;;;16.77;2.35;;;;;;;20.62;75.28;100256.06;10365413;28;20107;-70
2022/08/25 01:54:32;;;;;;;8.55;2.47;;;;;;;20.47;75.04;100227.66;10365663;28;20129;-70
2022/08/25 01:59:33;;;;;;;13.88;3.28;;;;;;;20.58;75.46;100249.50;10364410;28;20125;-70
2022/08/25 02:04:34;;;;;;;19.65;2.90;;;;;;;20.56;75.46;100268.63;10364702;28;20444;-71
2022/08/25 02:09:36;;;;;;;18.67;3.17;;;;;;;20.56;75.89;100262.41;10369159;28;20046;-69
2022/08/25 02:14:37;;;;;;;19.80;3.35;;;;;;;20.45;75.59;100242.44;10371535;28;20073;-70
2022/08/25 02:19:38;;;;;;;14.93;2.75;;;;;;;20.44;75.85;100241.63;10371252;28;20064;-71
2022/08/25 02:24:38;;;;;;;14.75;3.38;;;;;;;20.51;76.03;100254.97;10371097;28;20053;-69
2022/08/25 02:29:39;;;;;;;11.75;2.65;;;;;;;20.42;75.87;100251.81;10371060;28;20037;-70
2022/08/25 02:34:40;;;;;;;11.13;2.35;;;;;;;20.54;75.78;100261.81;10370281;28;20053;-70
2022/08/25 02:39:41;;;;;;;23.17;3.05;;;;;;;20.50;75.54;100254.16;10370814;28;20063;-73
2022/08/25 02:44:42;;;;;;;17.20;2.90;;;;;;;20.32;75.56;100215.72;10369105;28;20073;-69
2022/08/25 02:49:43;;;;;;;16.48;3.75;;;;;;;20.73;75.25;100290.31;10369840;28;20524;-72
2022/08/25 02:54:44;;;;;;;9.57;2.95;;;;;;;20.88;74.96;100295.22;10369651;28;20048;-69
2022/08/25 02:59:47;;;;;;;13.75;2.78;;;;;;;21.00;74.33;100281.69;10369984;28;20038;-69
2022/08/25 03:04:48;;;;;;;21.52;3.65;;;;;;;21.13;73.51;100290.38;10369258;28;20049;-72
2022/08/25 03:09:48;;;;;;;12.32;2.60;;;;;;;21.41;72.78;100305.81;10369799;28;20037;-73
2022/08/25 03:14:49;;;;;;;27.15;4.03;;;;;;;21.14;71.79;100218.25;10369276;28;20069;-75
2022/08/25 03:19:50;;;;;;;20.55;3.60;;;;;;;21.70;70.15;100227.41;10368677;28;20049;-70
2022/08/25 03:24:51;;;;;;;8.25;2.78;;;;;;;22.48;68.51;100287.94;10368632;28;20046;-72
2022/08/25 03:29:52;;;;;;;14.18;2.70;;;;;;;23.02;66.45;100276.53;10368612;28;20044;-71
2022/08/25 03:34:52;;;;;;;15.30;2.78;;;;;;;23.81;63.81;100267.09;10368247;28;20042;-70
2022/08/25 03:39:53;;;;;;;17.55;2.70;;;;;;;24.72;61.13;100277.03;10369007;28;20042;-69
2022/08/25 03:44:54;;;;;;;12.02;2.35;;;;;;;25.09;58.18;100252.44;10354588;28;20156;-71
2022/08/25 03:49:55;;;;;;;15.40;2.85;;;;;;;25.73;55.92;100289.38;10367950;28;20073;-73
2022/08/25 03:54:56;;;;;;;12.75;2.60;;;;;;;25.47;54.49;100169.66;10340265;28;20565;-70
2022/08/25 03:59:56;;;;;;;11.82;2.58;;;;;;;26.53;52.89;100288.84;10327719;28;20044;-73
2022/08/25 04:04:57;;;;;;;11.85;1.90;;;;;;;26.71;51.22;100266.47;10326972;28;20138;-73
2022/08/25 04:09:58;;;;;;;20.08;2.20;;;;;;;27.10;49.65;100284.84;10348722;28;20046;-70
2022/08/25 04:15:00;;;;;;;11.07;1.60;;;;;;;27.42;47.70;100292.66;10350596;28;20057;-68
2022/08/25 04:20:01;;;;;;;10.18;2.35;;;;;;;27.57;46.71;100307.31;10349439;28;20046;-68
2022/08/25 04:25:04;;;;;;;13.65;2.13;;;;;;;27.64;45.34;100303.19;10354758;28;20046;-68
2022/08/25 04:30:05;;;;;;;16.67;2.17;;;;;;;27.99;44.83;100304.03;10334212;28;20038;-70
2022/08/25 04:35:07;;;;;;;13.88;2.60;;;;;;;28.36;43.32;100298.00;10357551;28;20042;-68
2022/08/25 04:40:09;;;;;;;15.90;3.15;;;;;;;28.43;42.40;100298.50;10363060;28;20124;-68
2022/08/25 04:45:10;;;;;;;16.30;2.85;;;;;;;28.25;41.33;100266.41;10365383;28;20062;-70
2022/08/25 04:50:11;;;;;;;9.25;2.03;;;;;;;27.94;40.49;100255.75;10366478;28;20052;-70
2022/08/25 04:55:11;;;;;;;14.15;2.75;;;;;;;27.57;39.64;100222.72;10356094;28;20046;-74
2022/08/25 05:00:13;;;;;;;26.70;3.15;;;;;;;27.68;39.14;100287.84;10325336;28;20042;-77
2022/08/25 05:05:15;;;;;;;9.82;1.95;;;;;;;27.06;38.13;100193.81;10325607;28;20103;-76
2022/08/25 05:10:15;;;;;;;19.48;2.38;;;;;;;27.25;37.19;100222.13;10326061;28;20042;-71
2022/08/25 05:20:38;;;;;;;27.20;3.03;;;;;;;28.07;33.05;100289.78;10324817;28;20038;-70
2022/08/25 05:25:39;;;;;;;47.55;3.85;;;;;;;28.33;32.07;100276.72;10325268;28;20038;-72
2022/08/25 05:30:41;;;;;;;25.10;2.40;;;;;;;27.95;31.20;100189.13;10325154;28;20042;-74
2022/08/25 05:35:43;;;;;;;29.77;3.40;;;;;;;28.47;30.39;100252.28;10324866;28;20087;-71
2022/08/25 05:40:44;;;;;;;18.02;2.45;;;;;;;28.88;30.44;100270.97;10326205;28;20065;-73
2022/08/25 05:45:45;;;;;;;28.98;2.75;;;;;;;28.73;29.88;100219.19;10331376;28;20038;-71
2022/08/25 05:50:54;;;;;;;13.10;2.05;;;;;;;29.13;28.95;100245.22;10331094;28;20056;-75
2022/08/25 05:55:57;;;;;;;23.95;2.20;;;;;;;28.93;29.12;100202.53;10330951;28;20124;-73
2022/08/25 06:02:39;;;;;;;;;;;;;;;29.58;27.47;100262.91;10332063;28;20069;-74
2022/08/25 06:06:23;;;;;;;28.38;2.83;;;;;;;29.53;27.10;100260.25;10330478;28;19924;-71
2022/08/25 06:11:23;;;;;;;50.78;4.35;;;;;;;29.72;26.49;100232.09;10331376;28;20046;-73
2022/08/25 06:16:24;;;;;;;41.53;4.20;;;;;;;29.38;25.03;100164.72;10330826;28;20038;-72
2022/08/25 06:21:25;;;;;;;40.95;3.38;;;;;;;30.08;24.47;100256.13;10329992;28;20051;-74
2022/08/25 06:26:26;;;;;;;30.52;2.88;;;;;;;30.05;25.33;100194.53;10330633;28;20049;-73
2022/08/25 06:31:26;;;;;;;88.45;6.32;;;;;;;30.56;24.36;100250.34;10330507;28;20038;-72
2022/08/25 06:36:27;;;;;;;62.35;4.18;;;;;;;30.66;24.34;100263.84;10330212;28;20049;-72
2022/08/25 06:41:29;;;;;;;58.88;4.20;;;;;;;30.72;24.08;100262.63;10329656;28;20054;-71
2022/08/25 06:46:30;;;;;;;32.83;3.35;;;;;;;30.86;23.86;100251.69;10329432;28;20038;-69
2022/08/25 06:51:31;;;;;;;44.88;3.72;;;;;;;30.93;23.89;100224.66;10329283;28;20052;-75
2022/08/25 06:56:33;;;;;;;21.60;2.67;;;;;;;30.99;22.92;100226.16;10330124;28;20048;-71
2022/08/25 07:01:34;;;;;;;43.97;5.20;;;;;;;30.76;23.04;100173.19;10328919;28;20046;-75
2022/08/25 07:06:36;;;;;;;49.90;4.70;;;;;;;31.28;21.81;100225.81;10329361;28;20417;-72
2022/08/25 07:11:39;;;;;;;51.65;4.00;;;;;;;31.58;22.48;100229.78;10328746;28;20121;-74
2022/08/25 07:16:40;;;;;;;50.22;4.35;;;;;;;31.44;22.02;100228.22;10329984;28;20034;-69
2022/08/25 07:21:44;;;;;;;26.30;3.70;;;;;;;31.39;22.09;100185.25;10328162;28;20130;-71
2022/08/25 07:26:45;;;;;;;42.25;4.40;;;;;;;31.66;22.00;100214.53;10328103;28;20463;-72
2022/08/25 07:31:46;;;;;;;44.25;3.50;;;;;;;31.69;21.62;100202.09;10327978;28;20117;-71
2022/08/25 07:36:47;;;;;;;37.40;3.55;;;;;;;31.92;22.53;100202.91;10327806;28;20095;-72
2022/08/25 07:41:49;;;;;;;20.95;3.00;;;;;;;31.97;22.07;100186.28;10328884;28;20556;-72
2022/08/25 07:46:50;;;;;;;61.63;4.20;;;;;;;32.48;22.51;100193.16;10328150;28;20042;-72
2022/08/25 07:51:52;;;;;;;28.85;3.53;;;;;;;32.46;21.60;100181.69;10327937;28;20046;-73
2022/08/25 07:56:53;;;;;;;44.78;4.20;;;;;;;32.67;21.44;100182.72;10327314;28;20407;-72
2022/08/25 08:01:54;;;;;;;48.00;4.60;;;;;;;32.50;21.56;100166.19;10326009;28;20054;-71
2022/08/25 08:06:56;;;;;;;22.60;3.05;;;;;;;32.42;21.88;100129.25;10327383;28;20046;-72
2022/08/25 08:11:57;;;;;;;37.22;3.45;;;;;;;32.64;22.06;100144.88;10327386;28;20475;-74
2022/08/25 08:16:58;;;;;;;18.40;2.83;;;;;;;32.86;21.69;100156.88;10326681;28;20035;-73
2022/08/25 08:22:00;;;;;;;28.75;3.55;;;;;;;32.31;21.78;100028.97;10326576;28;20060;-77
2022/08/25 08:27:01;;;;;;;20.05;2.72;;;;;;;33.30;20.96;100150.25;10327660;28;20440;-75
2022/08/25 08:32:04;;;;;;;39.13;3.63;;;;;;;32.90;21.71;100065.09;10326089;28;20040;-73
2022/08/25 08:37:05;;;;;;;43.17;3.97;;;;;;;33.42;21.03;100146.84;10326036;28;20519;-76
2022/08/25 08:42:17;;;;;;;26.67;2.85;;;;;;;33.45;20.24;100134.38;10326773;28;20449;-71
2022/08/25 08:47:30;;;;;;;16.52;2.95;;;;;;;33.47;20.66;100138.41;10326403;28;20046;-78
2022/08/25 08:52:43;;;;;;;32.60;3.58;;;;;;;33.55;19.73;100129.34;10325565;28;20046;-75
2022/08/25 08:57:50;;;;;;;37.07;4.17;;;;;;;33.38;20.55;100090.81;10326369;28;20042;-70
2022/08/25 09:02:57;;;;;;;30.05;4.10;;;;;;;33.62;20.69;100104.84;10324563;28;20046;-75
2022/08/25 09:08:11;;;;;;;30.35;4.22;;;;;;;33.40;19.42;100058.25;10325159;28;20125;-71
2022/08/25 09:13:23;;;;;;;29.73;3.78;;;;;;;33.71;20.06;100120.56;10325125;28;20125;-72
2022/08/25 09:18:45;;;;;;;36.42;4.22;;;;;;;33.52;20.37;100085.94;10330580;28;20046;-71
2022/08/25 09:23:55;;;;;;;52.38;4.50;;;;;;;33.77;20.21;100097.19;10332559;28;20509;-71
2022/08/25 09:29:10;;;;;;;23.42;3.88;;;;;;;33.84;21.34;100087.31;10331863;28;20129;-73
2022/08/25 09:34:17;;;;;;;29.70;4.20;;;;;;;33.94;20.65;100086.13;10331663;28;20069;-73
2022/08/25 09:39:19;;;;;;;23.73;3.53;;;;;;;33.92;20.77;100063.59;10331559;28;20046;-70
2022/08/25 09:44:24;;;;;;;45.55;5.07;;;;;;;34.04;20.97;100105.09;10331313;28;20061;-74
2022/08/25 09:49:33;;;;;;;41.17;4.93;;;;;;;33.77;21.18;100087.00;10331841;28;20494;-73
2022/08/25 09:54:37;;;;;;;24.55;3.58;;;;;;;33.86;21.36;100079.53;10332391;28;20072;-76
2022/08/25 09:59:38;;;;;;;48.22;5.15;;;;;;;33.61;21.36;100042.66;10330956;28;20112;-71
2022/08/25 10:04:39;;;;;;;26.15;4.53;;;;;;;33.64;21.60;100077.81;10331181;28;20096;-72
2022/08/25 10:09:42;;;;;;;42.45;5.20;;;;;;;33.47;21.02;100042.03;10331698;28;20042;-75
2022/08/25 10:14:43;;;;;;;38.13;5.78;;;;;;;33.40;20.82;100027.97;10330452;28;20045;-76
2022/08/25 10:19:44;;;;;;;45.70;5.65;;;;;;;33.83;21.23;100074.69;10331803;28;20411;-72
2022/08/25 10:24:45;;;;;;;51.83;5.97;;;;;;;33.84;20.82;100054.25;10331187;28;20467;-76
2022/08/25 10:29:48;;;;;;;40.88;4.72;;;;;;;33.94;20.65;100063.28;10328793;28;20042;-71
2022/08/25 10:35:07;;;;;;;45.20;5.70;;;;;;;33.82;21.42;100052.94;10329729;28;20046;-70
2022/08/25 10:40:24;;;;;;;24.30;3.70;;;;;;;33.78;21.97;100035.47;10329698;28;20060;-72
2022/08/25 10:45:42;;;;;;;34.47;5.30;;;;;;;33.93;21.70;100042.38;10330006;28;20042;-73
2022/08/25 10:50:51;;;;;;;58.63;6.63;;;;;;;33.82;21.17;100025.41;10329957;28;20106;-72
2022/08/25 10:56:07;;;;;;;37.42;4.95;;;;;;;33.99;21.37;100047.34;10329240;28;20482;-73
2022/08/25 11:01:44;;;;;;;47.33;6.38;;;;;;;33.57;21.25;99956.34;10329440;28;20041;-70
2022/08/25 11:07:20;;;;;;;33.42;5.28;;;;;;;33.90;21.87;100013.53;10328285;28;20046;-73
2022/08/25 11:12:39;;;;;;;55.95;7.70;;;;;;;34.00;21.68;100040.69;10338652;28;20042;-75
2022/08/25 11:17:45;;;;;;;90.53;7.82;;;;;;;33.90;21.46;100024.56;10335108;28;20042;-77
2022/08/25 11:22:54;;;;;;;44.10;5.50;;;;;;;33.91;21.47;100028.91;10329132;28;20078;-72
2022/08/25 11:28:05;;;;;;;39.65;5.05;;;;;;;34.02;22.20;100030.16;10328186;28;20047;-71
2022/08/25 11:33:08;;;;;;;34.77;5.77;;;;;;;33.74;22.09;99993.19;10360873;28;20038;-71
2022/08/25 11:38:24;;;;;;;34.13;5.00;;;;;;;33.76;22.66;100021.22;10359355;28;20039;-73
2022/08/25 11:43:43;;;;;;;35.40;5.40;;;;;;;33.61;23.62;100006.84;10327736;28;20069;-75
2022/08/25 11:49:06;;;;;;;49.47;6.13;;;;;;;33.70;23.38;100015.09;10328126;28;20471;-75
2022/08/25 11:54:23;;;;;;;47.95;5.25;;;;;;;33.60;23.25;100024.53;10336565;28;20119;-73
2022/08/25 11:59:50;;;;;;;65.75;7.47;;;;;;;33.48;22.97;100034.59;10327317;28;20095;-71
2022/08/25 12:04:54;;;;;;;34.63;5.20;;;;;;;33.24;23.79;100013.94;10327435;28;20046;-73
2022/08/25 12:09:54;;;;;;;61.25;5.50;;;;;;;33.29;23.84;99997.22;10340287;28;20034;-73
2022/08/25 12:15:23;;;;;;;100.18;9.68;;;;;;;32.94;23.67;99949.72;10366474;28;20103;-73
2022/08/25 12:20:53;;;;;;;57.78;5.68;;;;;;;33.30;22.66;100014.56;10366414;28;20046;-74
2022/08/25 12:26:00;;;;;;;31.80;4.80;;;;;;;33.13;22.70;100026.41;10367291;28;20042;-73
2022/08/25 12:31:17;;;;;;;32.72;5.03;;;;;;;32.73;23.82;99963.34;10367160;28;20046;-72
2022/08/25 12:36:30;;;;;;;48.80;5.68;;;;;;;32.99;23.18;100021.09;10366682;28;20045;-70
2022/08/25 12:41:31;;;;;;;36.20;5.82;;;;;;;32.97;23.62;100021.41;10366533;28;20122;-69
2022/08/25 12:46:35;;;;;;;62.08;6.60;;;;;;;32.21;24.20;99905.59;10342464;28;20524;-75
2022/08/25 12:56:22;;;;;;;54.50;6.32;;;;;;;32.32;23.84;99972.88;10573756;27;20417;-73
2022/08/25 13:01:47;;;;;;;38.50;5.78;;;;;;;32.38;23.88;99998.25;10573790;28;20043;-72
2022/08/25 13:07:19;;;;;;;46.08;6.43;;;;;;;32.21;24.08;99960.56;10573597;28;20032;-70
2022/08/25 13:12:49;;;;;;;74.50;7.07;;;;;;;32.55;23.70;100017.56;10572707;28;20054;-69
2022/08/25 13:17:50;;;;;;;44.78;6.07;;;;;;;31.90;24.47;99974.44;10566275;28;20050;-69
2022/08/25 13:22:58;;;;;;;27.50;3.85;;;;;;;32.15;24.52;100019.56;10571901;28;20046;-71
2022/08/25 13:28:02;;;;;;;44.88;5.57;;;;;;;31.97;24.69;100026.94;10524615;28;20033;-71
2022/08/25 13:33:18;;;;;;;40.95;4.95;;;;;;;32.03;24.14;100026.47;10530871;28;20519;-72
2022/08/25 13:38:19;;;;;;;55.30;5.35;;;;;;;31.74;24.70;100002.31;10527617;28;20036;-73
2022/08/25 13:43:20;;;;;;;58.13;5.90;;;;;;;31.48;24.53;99993.16;10504440;28;20041;-70
2022/08/25 13:48:36;;;;;;;43.60;6.03;;;;;;;31.18;24.61;99970.88;10489031;28;20036;-70
2022/08/25 13:53:37;;;;;;;58.35;6.22;;;;;;;31.11;24.76;99975.97;10487308;28;20502;-68
2022/08/25 13:58:42;;;;;;;34.78;5.32;;;;;;;31.13;24.45;100006.66;10486363;28;20138;-67
2022/08/25 14:03:46;;;;;;;39.40;5.13;;;;;;;31.15;24.41;100029.91;10482063;28;20042;-72
2022/08/25 14:08:54;;;;;;;38.35;5.18;;;;;;;30.98;24.74;100026.25;10459685;28;20045;-70
2022/08/25 14:14:18;;;;;;;47.00;5.15;;;;;;;30.97;24.78;100021.91;10459753;28;20072;-70
2022/08/25 14:19:22;;;;;;;53.17;6.70;;;;;;;30.51;25.11;99984.56;10459036;28;20040;-73
2022/08/25 14:24:23;;;;;;;55.55;5.88;;;;;;;30.62;25.18;100021.59;10458939;28;20068;-70
2022/08/25 14:29:24;;;;;;;35.88;4.97;;;;;;;30.42;24.96;100009.16;10458954;28;20107;-72
2022/08/25 14:34:35;;;;;;;31.48;4.32;;;;;;;30.14;24.69;100000.97;10468155;28;20044;-71
2022/08/25 14:39:36;;;;;;;31.73;4.60;;;;;;;30.17;25.05;100016.78;10459337;28;20079;-73
2022/08/25 14:44:37;;;;;;;42.35;4.60;;;;;;;29.68;25.16;99962.78;10458286;28;20071;-74
2022/08/25 14:49:44;;;;;;;36.28;4.53;;;;;;;29.90;24.95;100034.06;10458331;28;20036;-70
2022/08/25 14:54:45;;;;;;;37.58;4.80;;;;;;;29.66;25.35;99997.88;10457883;28;20084;-70
2022/08/25 14:59:47;;;;;;;33.25;5.07;;;;;;;29.30;25.94;99977.41;10458671;28;20041;-73
2022/08/25 15:05:01;;;;;;;39.63;4.40;;;;;;;29.19;25.63;99986.13;10474456;28;20036;-70
2022/08/25 15:10:01;;;;;;;43.00;4.78;;;;;;;29.29;25.54;100029.72;10499345;28;20041;-70
2022/08/25 15:15:03;;;;;;;37.40;4.13;;;;;;;29.08;26.28;100030.06;10497669;28;20423;-72
2022/08/25 15:20:04;;;;;;;53.65;5.72;;;;;;;29.05;26.65;100046.25;10480778;28;20037;-70
2022/08/25 15:25:05;;;;;;;33.55;4.63;;;;;;;28.92;26.72;100050.50;10468108;28;20497;-73
2022/08/25 15:30:07;;;;;;;32.50;4.15;;;;;;;28.77;27.29;100057.03;10456528;28;20128;-70
2022/08/25 15:35:08;;;;;;;29.67;4.60;;;;;;;28.14;27.66;99983.59;10467879;28;20044;-70
2022/08/25 15:40:10;;;;;;;61.67;5.10;;;;;;;28.41;28.18;100051.25;10456879;28;20052;-69
2022/08/25 15:45:11;;;;;;;38.80;5.03;;;;;;;28.22;28.22;100060.22;10455966;28;20040;-68
2022/08/25 15:50:16;;;;;;;31.50;4.05;;;;;;;28.01;28.62;100058.84;10468524;28;20047;-72
2022/08/25 15:55:17;;;;;;;65.53;5.13;;;;;;;27.84;29.12;100055.75;10479477;28;20068;-71
2022/08/25 16:00:18;;;;;;;44.80;4.80;;;;;;;27.73;29.97;100061.31;10480119;28;20128;-71
2022/08/25 16:05:19;;;;;;;57.10;6.90;;;;;;;27.65;31.33;100077.50;10469282;28;20052;-70
2022/08/25 16:10:20;;;;;;;58.75;7.20;;;;;;;27.49;33.03;100076.81;10473938;28;20048;-71
2022/08/25 16:15:21;;;;;;;44.55;6.22;;;;;;;27.33;34.16;100083.50;10496089;28;20040;-70
2022/08/25 16:20:23;;;;;;;55.20;6.68;;;;;;;27.12;35.03;100100.00;10495949;28;20523;-72
2022/08/25 16:25:24;;;;;;;46.28;5.85;;;;;;;26.61;35.92;100032.22;10494490;28;20072;-71
2022/08/25 16:30:24;;;;;;;50.70;6.75;;;;;;;26.54;36.67;100054.31;10495914;28;20063;-70
2022/08/25 16:35:26;;;;;;;82.85;12.13;;;;;;;26.31;40.86;100049.50;10483084;28;20099;-71
2022/08/25 16:40:28;;;;;;;94.47;12.70;;;;;;;26.40;42.51;100086.75;10364368;28;20409;-69
2022/08/25 16:45:29;;;;;;;90.55;11.32;;;;;;;26.28;43.82;100105.34;10393783;28;20094;-71
2022/08/25 16:50:30;;;;;;;77.70;10.93;;;;;;;25.42;44.99;100009.19;10413417;28;20086;-73
2022/08/25 16:55:31;;;;;;;85.80;10.38;;;;;;;25.74;45.87;100081.50;10406080;28;20531;-71
2022/08/25 17:00:36;;;;;;;80.78;8.85;;;;;;;25.41;47.36;100055.72;10403108;28;20046;-73
2022/08/25 17:05:41;;;;;;;44.33;7.50;;;;;;;25.63;48.45;100129.66;10428889;28;20068;-74
2022/08/25 17:10:42;;;;;;;50.42;6.90;;;;;;;25.56;47.94;100126.41;10412289;28;20124;-72
2022/08/25 17:15:47;;;;;;;51.13;7.75;;;;;;;25.28;48.19;100089.72;10409907;28;20390;-73
2022/08/25 17:21:06;;;;;;;60.13;8.30;;;;;;;25.32;48.41;100117.16;10401132;28;20041;-69
2022/08/25 17:26:09;;;;;;;43.47;6.97;;;;;;;25.11;47.91;100100.81;10411369;28;20140;-70
2022/08/25 17:31:11;;;;;;;49.92;6.85;;;;;;;25.00;48.15;100110.03;10412101;28;20042;-71
2022/08/25 17:36:12;;;;;;;39.30;5.53;;;;;;;24.82;47.78;100095.84;10412071;28;20651;-69
2022/08/25 17:41:13;;;;;;;40.85;5.88;;;;;;;24.79;48.35;100120.03;10416855;28;20182;-70
2022/08/25 17:46:14;;;;;;;42.42;6.80;;;;;;;24.28;48.62;100050.03;10408485;28;20087;-71
2022/08/25 17:51:15;;;;;;;46.20;6.45;;;;;;;24.59;48.33;100120.81;10414807;28;20418;-71
2022/08/25 17:56:19;;;;;;;37.58;5.07;;;;;;;24.41;48.88;100108.47;10414723;28;20057;-72
2022/08/25 18:01:26;;;;;;;43.05;5.72;;;;;;;23.63;49.06;99995.22;10412222;28;20128;-71
2022/08/25 18:06:29;;;;;;;44.80;5.80;;;;;;;24.21;49.30;100111.09;10428961;28;20037;-70
2022/08/25 18:11:32;;;;;;;41.53;5.07;;;;;;;23.72;49.40;100044.34;10412592;28;20037;-71
2022/08/25 18:16:32;;;;;;;46.83;6.40;;;;;;;24.01;49.48;100103.66;10410396;28;20041;-69
2022/08/25 18:21:34;;;;;;;34.45;5.20;;;;;;;23.50;49.80;100032.81;10413950;28;20551;-70
2022/08/25 18:26:35;;;;;;;30.95;4.95;;;;;;;23.69;49.74;100070.13;10413386;28;20497;-69
2022/08/25 18:31:36;;;;;;;36.00;4.72;;;;;;;23.74;49.67;100095.63;10408984;28;20058;-72
2022/08/25 18:36:37;;;;;;;28.75;5.05;;;;;;;23.65;49.62;100093.38;10396585;28;20453;-72
2022/08/25 18:41:41;;;;;;;35.33;4.65;;;;;;;23.55;49.59;100089.78;10377417;28;20065;-73
2022/08/25 18:46:42;;;;;;;32.20;5.05;;;;;;;23.50;49.51;100078.88;10376254;28;20050;-72
2022/08/25 18:51:44;;;;;;;34.47;4.45;;;;;;;23.43;49.14;100079.13;10376259;28;20053;-72
2022/08/25 18:56:45;;;;;;;31.73;4.32;;;;;;;23.18;49.58;100050.75;10376423;28;20045;-72
2022/08/25 19:01:46;;;;;;;24.20;4.75;;;;;;;22.87;48.94;100013.59;10376516;28;20037;-72
2022/08/25 19:06:47;;;;;;;26.10;4.25;;;;;;;22.77;49.63;100014.31;10375886;28;20054;-72
2022/08/25 19:11:48;;;;;;;28.60;4.18;;;;;;;23.01;50.35;100063.59;10375497;28;20030;-72
2022/08/25 19:16:50;;;;;;;59.30;5.40;;;;;;;22.95;51.16;100072.75;10376022;28;20080;-73
2022/08/25 19:21:51;;;;;;;26.58;4.07;;;;;;;22.88;52.00;100078.31;10375678;28;20184;-72
2022/08/25 19:26:52;;;;;;;25.88;4.75;;;;;;;22.76;52.74;100073.06;10375184;28;20133;-74
2022/08/25 19:31:53;;;;;;;27.45;4.32;;;;;;;22.68;53.01;100073.53;10374743;28;20038;-71
2022/08/25 19:36:55;;;;;;;38.55;5.50;;;;;;;22.31;53.33;100011.94;10374901;28;20176;-72
2022/08/25 19:41:57;;;;;;;32.85;5.38;;;;;;;22.11;53.63;99998.97;10401672;28;20048;-72
2022/08/25 19:46:58;;;;;;;28.58;5.07;;;;;;;22.07;54.29;99992.41;10413057;28;20041;-74
2022/08/25 19:52:02;;;;;;;20.83;4.78;;;;;;;22.33;55.61;100055.78;10412622;28;20053;-72
2022/08/25 19:57:06;;;;;;;20.13;4.53;;;;;;;22.22;55.63;100048.63;10413123;28;20056;-71
2022/08/25 20:02:11;;;;;;;29.10;5.57;;;;;;;22.16;56.75;100052.31;10409458;28;20045;-72
2022/08/25 20:07:12;;;;;;;23.13;4.40;;;;;;;22.15;57.52;100056.09;10402181;28;20046;-72
2022/08/25 20:12:13;;;;;;;28.02;5.30;;;;;;;21.98;58.53;100037.19;10373877;28;20041;-72
2022/08/25 20:17:14;;;;;;;40.47;6.03;;;;;;;22.07;59.54;100051.09;10373291;28;20048;-73
2022/08/25 20:22:15;;;;;;;27.30;4.72;;;;;;;22.06;60.75;100054.88;10373056;28;20509;-73
2022/08/25 20:27:21;;;;;;;27.23;5.55;;;;;;;22.00;63.54;100064.00;10373096;28;20120;-73
2022/08/25 20:32:22;;;;;;;25.38;5.13;;;;;;;21.96;63.18;100062.88;10373282;28;20100;-72
2022/08/25 20:37:23;;;;;;;22.17;5.43;;;;;;;21.88;63.87;100054.13;10387447;28;20096;-71
2022/08/25 20:42:24;;;;;;;28.35;5.50;;;;;;;21.87;64.69;100051.69;10372647;28;20046;-72
2022/08/25 20:47:25;;;;;;;25.15;5.40;;;;;;;21.43;65.70;99978.59;10387772;28;20034;-72
2022/08/25 20:52:25;;;;;;;22.85;4.95;;;;;;;21.48;65.74;99985.94;10373305;28;20069;-73
2022/08/25 20:57:26;;;;;;;29.40;5.50;;;;;;;21.81;66.48;100045.38;10372454;28;20049;-71
2022/08/25 21:02:28;;;;;;;24.83;4.68;;;;;;;21.47;66.40;99985.13;10371131;28;20077;-71
2022/08/25 21:07:29;;;;;;;47.05;6.05;;;;;;;21.61;66.26;100012.63;10370431;28;20046;-71
2022/08/25 21:12:30;;;;;;;19.65;4.93;;;;;;;21.68;66.35;100017.88;10371553;28;20103;-71
2022/08/25 21:17:31;;;;;;;19.60;4.82;;;;;;;21.24;65.70;99945.63;10380461;28;20038;-71
2022/08/25 21:22:34;;;;;;;26.00;4.70;;;;;;;21.67;65.88;100027.88;10395212;28;20042;-71
2022/08/25 21:27:35;;;;;;;21.47;4.50;;;;;;;21.61;65.24;100007.22;10379319;28;20420;-71
2022/08/25 21:32:35;;;;;;;22.02;4.18;;;;;;;21.15;64.78;99947.91;10378532;28;20287;-70
2022/08/25 21:37:36;;;;;;;24.10;4.63;;;;;;;21.12;64.48;99942.16;10378925;28;20034;-71
2022/08/25 21:42:37;;;;;;;20.67;3.92;;;;;;;21.10;64.40;99930.81;10378664;28;20038;-71
2022/08/25 21:47:41;;;;;;;17.17;3.83;;;;;;;21.49;64.11;99998.41;10378863;28;20552;-72
2022/08/25 21:52:41;;;;;;;22.75;4.20;;;;;;;21.45;63.61;100006.22;10378989;28;20107;-72
2022/08/25 21:57:42;;;;;;;16.35;3.55;;;;;;;21.17;63.33;99964.69;10393563;28;20100;-74
2022/08/25 22:02:44;;;;;;;20.35;4.57;;;;;;;21.27;62.68;99971.28;10379046;28;20050;-72
2022/08/25 22:07:45;;;;;;;38.80;5.35;;;;;;;21.29;62.59;99983.50;10393027;28;20038;-71
2022/08/25 22:12:47;;;;;;;22.45;4.18;;;;;;;20.50;62.38;99862.91;10378125;28;20040;-71
2022/08/25 22:17:48;;;;;;;18.95;4.15;;;;;;;21.17;61.70;99961.16;10377435;28;20104;-72
2022/08/25 22:22:49;;;;;;;17.17;3.72;;;;;;;20.91;61.48;99922.97;10378851;28;20080;-71
2022/08/25 22:27:49;;;;;;;15.90;3.30;;;;;;;21.26;61.41;99978.59;10376415;28;20038;-71
2022/08/25 22:32:50;;;;;;;19.77;3.63;;;;;;;21.17;61.32;99964.69;10377170;28;20543;-71
2022/08/25 22:37:51;;;;;;;41.53;4.63;;;;;;;20.71;61.49;99898.34;10377692;28;20037;-71
2022/08/25 22:42:52;;;;;;;19.55;3.40;;;;;;;21.11;61.56;99957.56;10375554;28;20451;-71
2022/08/25 22:47:54;;;;;;;17.63;3.70;;;;;;;20.66;61.50;99882.06;10376739;28;20080;-72
2022/08/25 22:52:55;;;;;;;19.00;3.58;;;;;;;20.36;62.16;99841.91;10376035;28;20421;-70
2022/08/25 22:57:56;;;;;;;12.85;3.20;;;;;;;20.90;62.21;99932.13;10375832;28;20042;-71
2022/08/25 23:02:56;;;;;;;19.08;3.35;;;;;;;21.04;62.47;99962.31;10376425;28;20050;-72
2022/08/25 23:07:58;;;;;;;13.00;3.10;;;;;;;20.81;62.81;99927.38;10376199;28;20046;-72
2022/08/25 23:12:59;;;;;;;18.15;3.05;;;;;;;21.05;63.49;99949.63;10375175;28;20096;-71
2022/08/25 23:18:00;;;;;;;12.35;2.75;;;;;;;20.95;64.30;99953.81;10375442;28;20040;-71